createdAt,value
2019-05-16T00:04:05.008Z,7.33
2019-05-16T00:09:04.264Z,7.13
2019-05-16T00:14:03.973Z,7.09
2019-05-16T00:19:02.956Z,7.09
2019-05-16T00:24:02.021Z,7.09
2019-05-16T00:29:01.955Z,7.08
2019-05-16T00:34:01.957Z,7.06
2019-05-16T00:39:00.932Z,7.04
2019-05-16T00:44:01.151Z,7.10
2019-05-16T00:49:00.958Z,7.08
2019-05-16T00:54:00.943Z,7.04
2019-05-16T00:59:00.218Z,7.13
2019-05-16T01:04:00.033Z,7.16
2019-05-16T01:08:59.955Z,7.09
2019-05-16T01:14:00.021Z,7.18
2019-05-16T01:18:59.096Z,7.36
2019-05-16T01:23:58.960Z,7.46
2019-05-16T01:28:59.139Z,7.50
2019-05-16T01:33:58.421Z,7.49
2019-05-16T01:38:58.478Z,7.52
2019-05-16T01:43:58.495Z,7.48
2019-05-16T01:48:57.820Z,7.33
2019-05-16T01:53:57.924Z,7.27
2019-05-16T01:58:58.120Z,7.22
2019-05-16T02:03:55.946Z,7.24
2019-05-16T02:08:57.839Z,7.34
2019-05-16T02:13:54.950Z,7.40
2019-05-16T02:18:54.002Z,7.44
2019-05-16T02:23:54.008Z,7.52
2019-05-16T02:28:53.013Z,7.64
2019-05-16T02:33:52.403Z,7.76
2019-05-16T02:38:55.596Z,7.86
2019-05-16T02:43:52.951Z,7.92
2019-05-16T02:48:54.043Z,7.95
2019-05-16T02:53:54.018Z,7.97
2019-05-16T02:58:54.029Z,7.88
2019-05-16T03:03:54.103Z,7.94
2019-05-16T03:08:54.061Z,8.02
2019-05-16T03:13:52.996Z,7.96
2019-05-16T03:18:53.031Z,8.02
2019-05-16T03:23:53.044Z,8.10
2019-05-16T03:28:52.358Z,8.14
2019-05-16T03:33:58.661Z,8.19
2019-05-16T03:38:52.141Z,8.24
2019-05-16T03:43:52.032Z,8.28
2019-05-16T03:48:51.905Z,8.28
2019-05-16T03:53:51.009Z,8.25
2019-05-16T03:58:51.218Z,8.30
2019-05-16T04:03:51.465Z,8.29
2019-05-16T04:08:51.255Z,8.28
2019-05-16T04:13:50.871Z,8.36
2019-05-16T04:18:51.484Z,8.45
2019-05-16T04:23:50.532Z,8.46
2019-05-16T04:28:51.213Z,8.44
2019-05-16T04:33:47.989Z,8.53
2019-05-16T04:38:47.121Z,8.60
2019-05-16T04:43:50.622Z,8.69
2019-05-16T04:48:50.736Z,8.77
2019-05-16T04:53:50.974Z,8.87
2019-05-16T04:58:51.337Z,9.03
2019-05-16T05:08:57.137Z,9.23
2019-05-16T05:13:50.582Z,9.32
2019-05-16T05:18:51.468Z,9.34
2019-05-16T05:23:50.848Z,9.39
2019-05-16T05:28:50.838Z,9.44
2019-05-16T05:33:50.544Z,9.47
2019-05-16T05:38:49.093Z,9.40
2019-05-16T05:43:50.261Z,9.40
2019-05-16T05:48:50.312Z,9.40
2019-05-16T05:53:51.005Z,9.48
2019-05-16T05:58:51.251Z,9.51
2019-05-16T06:03:50.552Z,9.53
2019-05-16T06:08:50.358Z,9.57
2019-05-16T06:13:50.256Z,9.59
2019-05-16T06:18:51.028Z,9.61
2019-05-16T06:23:51.136Z,9.65
2019-05-16T06:28:50.608Z,9.67
2019-05-16T06:33:51.095Z,9.69
2019-05-16T06:38:51.253Z,9.73
2019-05-16T06:43:50.723Z,9.81
2019-05-16T06:48:50.602Z,9.89
2019-05-16T06:53:50.228Z,9.94
2019-05-16T06:58:52.061Z,10.08
2019-05-16T07:03:50.807Z,10.30
2019-05-16T07:08:50.783Z,10.54
2019-05-16T07:13:52.037Z,10.77
2019-05-16T07:18:50.658Z,10.90
2019-05-16T07:23:51.131Z,10.96
2019-05-16T07:28:48.010Z,11.14
2019-05-16T07:33:50.049Z,11.32
2019-05-16T07:38:50.544Z,11.35
2019-05-16T07:43:50.633Z,11.28
2019-05-16T07:48:51.815Z,11.45
2019-05-16T07:53:50.514Z,11.47
2019-05-16T07:58:50.753Z,11.58
2019-05-16T08:03:50.644Z,11.76
2019-05-16T08:08:50.599Z,11.94
2019-05-16T08:13:47.737Z,12.09
2019-05-16T08:18:46.999Z,11.93
2019-05-16T08:23:50.382Z,11.83
2019-05-16T08:28:46.993Z,11.92
2019-05-16T08:33:46.652Z,12.01
2019-05-16T08:38:46.768Z,12.19
2019-05-16T08:43:46.043Z,12.22
2019-05-16T08:48:45.075Z,12.25
2019-05-16T08:53:44.868Z,12.17
2019-05-16T08:58:44.102Z,12.18
2019-05-16T09:08:42.704Z,11.93
2019-05-16T09:13:41.971Z,12.05
2019-05-16T09:18:45.970Z,12.42
2019-05-16T09:23:41.707Z,12.40
2019-05-16T09:28:41.746Z,12.68
2019-05-16T09:33:40.796Z,12.84
2019-05-16T09:38:39.861Z,12.84
2019-05-16T09:43:39.291Z,13.01
2019-05-16T09:48:38.755Z,12.94
2019-05-16T09:53:37.837Z,12.88
2019-05-16T10:28:58.830Z,13.74
2019-05-16T10:33:32.682Z,13.77
2019-05-16T10:38:32.645Z,14.03
2019-05-16T10:43:31.596Z,14.19
2019-05-16T10:48:30.912Z,14.53
2019-05-16T10:53:58.001Z,14.64
2019-05-16T10:58:36.886Z,14.68
2019-05-16T11:03:30.737Z,14.75
2019-05-16T11:08:30.916Z,14.63
2019-05-16T11:13:29.667Z,14.76
2019-05-16T11:18:28.696Z,14.77
2019-05-16T11:23:31.404Z,14.78
2019-05-16T11:28:28.693Z,14.65
2019-05-16T11:33:28.665Z,14.59
2019-05-16T11:38:28.743Z,14.66
2019-05-16T11:43:28.723Z,14.50
2019-05-16T11:48:29.615Z,14.48
2019-05-16T11:53:28.852Z,14.76
2019-05-16T11:58:27.685Z,15.05
2019-05-16T12:03:28.393Z,14.89
2019-05-16T12:08:26.848Z,14.84
2019-05-16T12:13:31.846Z,14.71
2019-05-16T12:18:27.978Z,14.68
2019-05-16T12:23:28.932Z,15.04
2019-05-16T12:28:28.734Z,15.32
2019-05-16T12:33:29.674Z,15.09
2019-05-16T12:38:29.715Z,14.56
2019-05-16T12:43:44.830Z,14.34
2019-05-16T12:48:29.685Z,14.24
2019-05-16T12:53:31.891Z,14.23
2019-05-16T12:58:37.974Z,14.17
2019-05-16T13:03:29.748Z,14.05
2019-05-16T13:13:28.905Z,14.32
2019-05-16T13:18:28.652Z,14.37
2019-05-16T13:23:29.675Z,14.31
2019-05-16T13:28:30.327Z,14.04
2019-05-16T13:33:29.678Z,13.74
2019-05-16T13:38:28.950Z,13.50
2019-05-16T13:43:29.650Z,13.48
2019-05-16T13:48:29.703Z,13.61
2019-05-16T13:53:29.621Z,13.62
2019-05-16T13:58:29.666Z,13.56
2019-05-16T14:03:28.696Z,13.56
2019-05-16T14:08:28.893Z,13.43
2019-05-16T14:13:27.907Z,13.36
2019-05-16T14:18:28.490Z,13.23
2019-05-16T14:23:28.294Z,13.29
2019-05-16T14:28:27.767Z,13.47
2019-05-16T14:33:27.621Z,13.67
2019-05-16T14:38:26.999Z,13.86
2019-05-16T14:43:27.188Z,14.01
2019-05-16T14:48:27.860Z,14.05
2019-05-16T14:53:28.210Z,14.02
2019-05-16T14:58:24.060Z,13.95
2019-05-16T15:03:23.713Z,13.66
2019-05-16T15:08:23.686Z,13.63
2019-05-16T15:13:22.859Z,13.58
2019-05-16T15:18:21.756Z,13.58
2019-05-16T15:23:21.997Z,13.55
2019-05-16T15:28:26.469Z,13.60
2019-05-16T15:33:22.729Z,13.63
2019-05-16T15:38:22.722Z,13.65
2019-05-16T15:43:22.038Z,13.61
2019-05-16T15:48:21.729Z,13.48
2019-05-16T15:53:21.687Z,13.28
2019-05-16T15:58:20.622Z,13.12
2019-05-16T16:03:20.696Z,13.14
2019-05-16T16:08:20.637Z,13.08
2019-05-16T16:13:20.207Z,13.03
2019-05-16T16:18:21.763Z,13.02
2019-05-16T16:23:20.636Z,12.94
2019-05-16T16:28:20.720Z,12.91
2019-05-16T16:33:25.816Z,12.75
2019-05-16T16:38:18.655Z,12.65
2019-05-16T16:43:17.899Z,12.61
2019-05-16T16:48:18.627Z,12.59
2019-05-16T16:53:18.631Z,12.53
2019-05-16T16:58:18.679Z,12.51
2019-05-16T17:03:17.594Z,12.37
2019-05-16T17:08:18.627Z,12.31
2019-05-16T17:13:18.674Z,12.20
2019-05-16T17:18:18.092Z,12.11
2019-05-16T17:23:17.633Z,12.00
2019-05-16T17:28:18.680Z,11.93
2019-05-16T17:33:18.692Z,11.92
2019-05-16T17:38:18.604Z,11.85
2019-05-16T17:43:19.593Z,11.65
2019-05-16T17:48:18.624Z,11.63
2019-05-16T17:53:17.795Z,11.61
2019-05-16T17:58:17.647Z,11.60
2019-05-16T18:03:17.688Z,11.56
2019-05-16T18:08:17.584Z,11.53
2019-05-16T18:13:17.066Z,11.55
2019-05-16T18:18:17.699Z,11.54
2019-05-16T18:23:16.651Z,11.45
2019-05-16T18:28:17.754Z,11.30
2019-05-16T18:33:17.009Z,11.18
2019-05-16T18:38:16.620Z,11.06
2019-05-16T18:43:16.666Z,10.89
2019-05-16T18:48:14.628Z,10.80
2019-05-16T18:53:14.698Z,10.82
2019-05-16T18:58:14.134Z,10.78
2019-05-16T19:03:13.614Z,10.66
2019-05-16T19:08:12.611Z,10.64
2019-05-16T19:13:12.516Z,10.53
2019-05-16T19:18:11.682Z,10.52
2019-05-16T19:23:10.979Z,10.35
2019-05-16T19:28:09.906Z,10.36
2019-05-16T19:33:10.645Z,10.31
2019-05-16T19:38:10.625Z,10.37
2019-05-16T19:43:10.581Z,10.29
2019-05-16T19:48:10.634Z,10.17
2019-05-16T19:53:11.620Z,10.21
2019-05-16T19:58:11.613Z,10.19
2019-05-16T20:03:11.597Z,10.15
2019-05-16T20:08:10.725Z,10.05
2019-05-16T20:13:10.017Z,10.01
2019-05-16T20:18:09.069Z,10.05
2019-05-16T20:23:08.661Z,9.99
2019-05-16T20:28:09.587Z,10.03
2019-05-16T20:33:10.603Z,10.05
2019-05-16T20:38:10.598Z,10.06
2019-05-16T20:43:10.613Z,10.01
2019-05-16T20:48:15.177Z,10.00
2019-05-16T20:53:10.582Z,10.04
2019-05-16T20:58:09.958Z,10.07
2019-05-16T21:03:10.664Z,10.08
2019-05-16T21:08:10.589Z,10.12
2019-05-16T21:13:10.657Z,10.02
2019-05-16T21:18:10.602Z,10.01
2019-05-16T21:23:10.629Z,10.00
2019-05-16T21:28:09.747Z,9.99
2019-05-16T21:33:08.917Z,9.98
2019-05-16T21:38:08.936Z,9.97
2019-05-16T21:43:08.596Z,9.99
2019-05-16T21:48:09.611Z,9.98
2019-05-16T21:53:09.011Z,9.88
2019-05-16T21:58:09.574Z,9.83
2019-05-16T22:03:09.044Z,9.88
2019-05-16T22:08:11.578Z,9.93
2019-05-16T22:13:08.610Z,9.92
2019-05-16T22:18:08.626Z,9.97
2019-05-16T22:23:08.594Z,10.01
2019-05-16T22:28:08.684Z,10.00
2019-05-16T22:33:09.235Z,9.99
2019-05-16T22:38:07.686Z,9.94
2019-05-16T22:43:10.300Z,9.90
2019-05-16T22:48:07.206Z,9.81
2019-05-16T22:53:06.773Z,9.75
2019-05-16T22:58:07.320Z,9.77
2019-05-16T23:03:06.774Z,9.78
2019-05-16T23:08:09.830Z,9.73
2019-05-16T23:13:07.023Z,9.80
2019-05-16T23:18:06.940Z,9.86
2019-05-16T23:23:06.910Z,9.87
2019-05-16T23:28:04.636Z,9.82
2019-05-16T23:33:06.884Z,9.76
2019-05-16T23:38:16.426Z,9.72
2019-05-16T23:43:04.608Z,9.70
2019-05-16T23:48:09.501Z,9.69
2019-05-16T23:53:07.041Z,9.72
2019-05-16T23:58:03.819Z,9.68
